This is the latest recevied weather packets stored in our database for station/object KE4ODN. If no packets are shown the sender has not sent any weather packets the latest 10 day(s).
| Time | Temp. | Humidity | Pressure | Rain* | Wind** | Luminosity | Snow |
|---|---|---|---|---|---|---|---|
| 1778049844 | 20° C | 79% | 1011.5 hPa | 0 mm | - | 0 W/m² | - |
| 1778049124 | 20° C | 79% | 1011.6 hPa | 0 mm | - | 0 W/m² | - |
| 1778048404 | 20° C | 79% | 1011.8 hPa | 0 mm | - | 0 W/m² | - |
| 1778046724 | 20.56° C | 78% | 1011.9 hPa | 0 mm | - | 0 W/m² | - |
| 1778046244 | 20.56° C | 79% | 1011.9 hPa | 0 mm | - | 0 W/m² | - |
| 1778043124 | 20° C | 78% | 1011.9 hPa | 0 mm | - | 0 W/m² | - |
| 1778042884 | 20° C | 78% | 1011.8 hPa | 0 mm | - | 0 W/m² | - |
| 1778039764 | 19.44° C | 81% | 1011.8 hPa | 0 mm | - | 0 W/m² | - |
| 1778039284 | 19.44° C | 83% | 1011.8 hPa | 0 mm | - | 0 W/m² | - |
| 1778038564 | 19.44° C | 82% | 1011.8 hPa | 0 mm | - | 0 W/m² | - |
| 1778037364 | 19.44° C | 84% | 1011.8 hPa | 0 mm | - | 0 W/m² | - |
| 1778036644 | 18.89° C | 85% | 1011.6 hPa | 0 mm | - | 0 W/m² | - |
| 1778036404 | 18.89° C | 88% | 1011.4 hPa | 0 mm | - | 0 W/m² | - |
| 1778035705 | 18.89° C | 88% | 1011.3 hPa | 0 mm | - | 0 W/m² | - |
| 1778035444 | 18.89° C | 87% | 1011.3 hPa | 0 mm | - | 0 W/m² | - |
| 1778034484 | 18.89° C | 88% | 1011.4 hPa | 0 mm | - | 0 W/m² | - |
| 1778034244 | 18.89° C | 87% | 1011.3 hPa | 0 mm | - | 0 W/m² | - |
| 1778033764 | 19.44° C | 85% | 1011.2 hPa | 0 mm | - | 0 W/m² | - |
| 1778032825 | 19.44° C | 87% | 1011.2 hPa | 0 mm | - | 0 W/m² | - |
| 1778032564 | 19.44° C | 86% | 1011.2 hPa | 0 mm | - | 0 W/m² | - |
| 1778031124 | 20° C | 84% | 1011.1 hPa | 0 mm | - | 0 W/m² | - |
| 1778030404 | 20° C | 84% | 1011.3 hPa | 0 mm | - | 0 W/m² | - |
| 1778028004 | 21.67° C | 78% | 1010.9 hPa | 0 mm | - | 0 W/m² | - |
| 1778026564 | 22.78° C | 69% | 1010.9 hPa | 0 mm | - | 9 W/m² | - |
| 1778026324 | 22.78° C | 70% | 1010.9 hPa | 0 mm | - | 14 W/m² | - |
* Rain latest hour (hover to see other rain measurements)
** Current wind speed in m/s (hover to see current wind gust speed)